createdAt,value
2022-12-14T00:00:28.774Z,15.75
2022-12-14T00:02:58.067Z,15.35
2022-12-14T00:05:29.033Z,16.80
2022-12-14T00:07:57.996Z,15.40
2022-12-14T00:10:27.656Z,20.73
2022-12-14T00:12:56.653Z,19.00
2022-12-14T00:15:25.658Z,14.30
2022-12-14T00:17:56.052Z,16.73
2022-12-14T00:20:25.046Z,14.82
2022-12-14T00:22:55.214Z,14.95
2022-12-14T00:25:24.603Z,21.02
2022-12-14T00:27:54.559Z,15.15
2022-12-14T00:30:23.528Z,15.07
2022-12-14T00:32:52.504Z,14.27
2022-12-14T00:35:22.898Z,21.95
2022-12-14T00:37:51.848Z,13.77
2022-12-14T00:40:20.985Z,14.52
2022-12-14T00:42:50.002Z,12.23
2022-12-14T00:45:19.047Z,14.13
2022-12-14T00:47:48.017Z,17.60
2022-12-14T00:50:17.129Z,13.73
2022-12-14T00:52:47.487Z,14.48
2022-12-14T00:55:16.593Z,16.70
2022-12-14T00:57:45.599Z,13.82
2022-12-14T01:00:17.356Z,15.82
2022-12-14T01:02:46.452Z,13.82
2022-12-14T01:05:15.487Z,13.25
2022-12-14T01:07:44.454Z,13.48
2022-12-14T01:10:19.457Z,12.35
2022-12-14T01:12:48.549Z,12.75
2022-12-14T01:15:17.662Z,11.68
2022-12-14T01:17:48.087Z,15.68
2022-12-14T01:20:17.127Z,15.70
2022-12-14T01:22:46.209Z,12.27
2022-12-14T01:25:15.171Z,14.95
2022-12-14T01:27:46.086Z,11.10
2022-12-14T01:30:15.224Z,11.23
2022-12-14T01:32:44.194Z,8.25
2022-12-14T01:35:13.169Z,9.32
2022-12-14T01:37:42.300Z,7.85
2022-12-14T01:40:11.847Z,8.80
2022-12-14T01:42:40.900Z,11.32
2022-12-14T01:45:19.598Z,11.07
2022-12-14T01:47:54.701Z,9.85
2022-12-14T01:50:29.443Z,10.95
2022-12-14T01:53:01.966Z,8.05
2022-12-14T01:55:35.318Z,6.93
2022-12-14T01:58:08.506Z,9.73
2022-12-14T02:00:39.698Z,6.93
2022-12-14T02:05:44.936Z,6.60
2022-12-14T02:08:15.199Z,7.18
2022-12-14T02:10:45.664Z,9.57
2022-12-14T02:13:18.806Z,6.30
2022-12-14T02:15:49.356Z,8.02
2022-12-14T02:18:22.202Z,8.35
2022-12-14T02:21:12.032Z,9.40
2022-12-14T02:24:20.575Z,7.82
2022-12-14T02:27:13.665Z,5.45
2022-12-14T02:30:07.297Z,8.32
2022-12-14T02:32:58.908Z,10.27
2022-12-14T02:35:39.147Z,8.60
2022-12-14T02:38:18.881Z,6.95
2022-12-14T02:40:58.889Z,13.77
2022-12-14T02:43:32.964Z,8.57
2022-12-14T02:46:12.456Z,11.05
2022-12-14T02:48:46.446Z,8.60
2022-12-14T02:51:25.337Z,7.45
2022-12-14T02:54:01.395Z,7.75
2022-12-14T02:56:37.207Z,5.57
2022-12-14T02:59:10.143Z,5.95
2022-12-14T03:01:42.015Z,4.78
2022-12-14T03:04:16.466Z,4.13
2022-12-14T03:06:54.549Z,5.72
2022-12-14T03:09:23.543Z,6.65
2022-12-14T03:11:58.649Z,3.72
2022-12-14T03:14:30.616Z,9.38
2022-12-14T03:17:08.764Z,9.02
2022-12-14T03:19:42.124Z,7.65
2022-12-14T03:22:16.041Z,4.68
2022-12-14T03:24:50.207Z,5.78
2022-12-14T03:27:25.030Z,4.35
2022-12-14T03:29:57.593Z,8.10
2022-12-14T03:32:31.022Z,7.13
2022-12-14T03:35:04.465Z,8.20
2022-12-14T03:37:39.444Z,5.60
2022-12-14T03:40:11.696Z,6.88
2022-12-14T03:42:49.606Z,9.88
2022-12-14T03:45:25.619Z,6.95
2022-12-14T03:48:03.301Z,6.97
2022-12-14T03:50:37.582Z,4.53
2022-12-14T03:53:12.717Z,6.82
2022-12-14T03:55:46.757Z,6.03
2022-12-14T03:58:32.835Z,7.47
2022-12-14T04:01:07.456Z,6.97
2022-12-14T04:03:46.890Z,4.47
2022-12-14T04:06:24.703Z,4.70
2022-12-14T04:09:02.162Z,4.32
2022-12-14T04:11:54.598Z,4.80
2022-12-14T04:14:45.127Z,4.63
2022-12-14T04:17:36.310Z,6.72
2022-12-14T04:20:11.360Z,8.48
2022-12-14T04:22:44.524Z,4.32
2022-12-14T04:25:35.073Z,6.45
2022-12-14T04:28:30.770Z,5.32
2022-12-14T04:31:02.766Z,6.03
2022-12-14T04:33:48.548Z,5.13
2022-12-14T04:36:25.426Z,7.82
2022-12-14T04:38:58.956Z,10.32
2022-12-14T04:41:33.279Z,7.65
2022-12-14T04:44:07.164Z,9.10
2022-12-14T04:46:40.849Z,6.35
2022-12-14T04:49:17.881Z,5.15
2022-12-14T04:51:53.960Z,9.73
2022-12-14T04:54:28.205Z,6.28
2022-12-14T04:57:02.473Z,7.28
2022-12-14T04:59:32.254Z,5.32
2022-12-14T05:02:11.315Z,7.00
2022-12-14T05:04:55.235Z,5.70
2022-12-14T05:07:38.355Z,4.40
2022-12-14T05:10:14.667Z,7.18
2022-12-14T05:12:52.104Z,10.57
2022-12-14T05:15:24.963Z,6.35
2022-12-14T05:17:56.221Z,5.15
2022-12-14T05:22:55.551Z,4.70
2022-12-14T05:25:24.595Z,11.30
2022-12-14T05:27:53.611Z,5.05
2022-12-14T05:30:22.692Z,6.93
2022-12-14T05:32:51.716Z,9.82
2022-12-14T05:35:21.106Z,7.28
2022-12-14T05:37:50.156Z,5.38
2022-12-14T05:40:20.703Z,9.43
2022-12-14T05:42:55.265Z,12.15
2022-12-14T05:45:24.833Z,5.47
2022-12-14T05:47:53.939Z,7.60
2022-12-14T05:50:22.911Z,4.43
2022-12-14T05:52:52.695Z,5.93
2022-12-14T05:55:23.583Z,4.72
2022-12-14T05:57:52.564Z,6.32
2022-12-14T06:00:21.853Z,3.53
2022-12-14T06:02:50.846Z,4.28
2022-12-14T06:05:19.862Z,5.28
2022-12-14T06:07:48.831Z,7.72
2022-12-14T06:10:18.498Z,5.05
2022-12-14T06:12:48.846Z,4.70
2022-12-14T06:15:17.980Z,6.50
2022-12-14T06:17:47.675Z,4.95
2022-12-14T06:20:16.854Z,4.10
2022-12-14T06:22:47.835Z,5.95
2022-12-14T06:25:17.098Z,5.57
2022-12-14T06:27:46.044Z,2.03
2022-12-14T06:30:17.432Z,3.80
2022-12-14T06:32:46.402Z,3.92
2022-12-14T06:35:15.672Z,6.07
2022-12-14T06:37:44.645Z,4.45
2022-12-14T06:40:18.145Z,3.78
2022-12-14T06:42:49.089Z,5.40
2022-12-14T06:45:27.687Z,10.02
2022-12-14T06:47:56.686Z,5.65
2022-12-14T06:50:25.788Z,5.45
2022-12-14T06:52:55.893Z,6.80
2022-12-14T06:55:25.806Z,3.05
2022-12-14T06:57:55.520Z,7.55
2022-12-14T07:00:26.774Z,3.25
2022-12-14T07:02:55.899Z,4.03
2022-12-14T07:05:25.501Z,9.55
2022-12-14T07:07:54.503Z,4.53
2022-12-14T07:10:23.476Z,4.00
2022-12-14T07:12:52.539Z,7.47
2022-12-14T07:15:21.681Z,5.25
2022-12-14T07:17:52.036Z,5.07
2022-12-14T07:20:21.022Z,5.70
2022-12-14T07:22:50.047Z,8.15
2022-12-14T07:25:19.064Z,5.25
2022-12-14T07:27:48.021Z,5.38
2022-12-14T07:30:17.146Z,4.85
2022-12-14T07:32:46.877Z,6.68
2022-12-14T07:35:17.758Z,7.53
2022-12-14T07:37:49.324Z,3.90
2022-12-14T07:40:18.473Z,7.32
2022-12-14T07:42:50.361Z,3.03
2022-12-14T07:45:21.855Z,5.35
2022-12-14T07:47:51.977Z,4.90
2022-12-14T07:50:22.318Z,4.82
2022-12-14T07:52:51.406Z,2.88
2022-12-14T07:55:20.800Z,5.03
2022-12-14T07:57:49.796Z,6.97
2022-12-14T08:00:19.229Z,3.90
2022-12-14T08:02:48.334Z,4.57
2022-12-14T08:05:17.672Z,3.70
2022-12-14T08:07:51.230Z,4.25
2022-12-14T08:10:20.211Z,5.55
2022-12-14T08:12:51.282Z,3.72
2022-12-14T08:15:20.223Z,6.22
2022-12-14T08:17:49.168Z,5.97
2022-12-14T08:20:18.266Z,10.25
2022-12-14T08:22:51.716Z,14.32
2022-12-14T08:25:20.775Z,4.35
2022-12-14T08:27:49.752Z,8.07
2022-12-14T08:30:18.799Z,6.78
2022-12-14T08:32:47.833Z,3.88
2022-12-14T08:35:18.654Z,13.52
2022-12-14T08:37:48.993Z,4.72
2022-12-14T08:40:18.832Z,5.50
2022-12-14T08:42:50.967Z,8.13
2022-12-14T08:45:19.924Z,6.85
2022-12-14T08:47:49.802Z,11.77
2022-12-14T08:50:19.036Z,5.43
2022-12-14T08:52:50.348Z,4.00
2022-12-14T08:55:27.557Z,6.32
2022-12-14T08:57:58.360Z,5.45
2022-12-14T09:00:27.355Z,5.35
2022-12-14T09:02:56.486Z,3.95
2022-12-14T09:05:25.552Z,6.35
2022-12-14T09:07:56.545Z,7.00
2022-12-14T09:10:25.769Z,7.25
2022-12-14T09:12:54.844Z,4.03
2022-12-14T09:15:24.854Z,2.40
2022-12-14T09:17:53.992Z,4.28
2022-12-14T09:20:23.021Z,3.35
2022-12-14T09:22:53.562Z,7.20
2022-12-14T09:25:23.978Z,1.65
2022-12-14T09:27:52.930Z,5.60
2022-12-14T09:30:26.599Z,3.25
2022-12-14T09:32:56.426Z,1.48
2022-12-14T09:35:25.432Z,2.53
2022-12-14T09:37:54.411Z,6.63
2022-12-14T09:40:28.407Z,3.50
2022-12-14T09:43:03.263Z,3.88
2022-12-14T09:45:35.081Z,3.47
2022-12-14T09:48:17.485Z,2.92
2022-12-14T09:50:49.593Z,3.47
2022-12-14T09:53:19.808Z,2.30
2022-12-14T09:55:52.687Z,6.00
2022-12-14T09:58:23.827Z,5.30
2022-12-14T10:03:53.369Z,6.45
2022-12-14T10:06:38.068Z,4.05
2022-12-14T10:09:15.883Z,8.45
2022-12-14T10:11:54.915Z,5.35
2022-12-14T10:14:29.237Z,4.95
2022-12-14T10:17:07.290Z,4.35
2022-12-14T10:19:43.170Z,9.05
2022-12-14T10:22:15.310Z,9.75
2022-12-14T10:24:48.782Z,4.78
2022-12-14T10:27:23.729Z,3.63
2022-12-14T10:30:01.664Z,4.28
2022-12-14T10:32:35.976Z,5.63
2022-12-14T10:35:15.709Z,7.68
2022-12-14T10:37:46.892Z,8.93
2022-12-14T10:43:22.817Z,3.80
2022-12-14T10:45:57.874Z,10.38
2022-12-14T10:48:41.002Z,5.32
2022-12-14T10:51:15.260Z,6.45
2022-12-14T10:53:48.952Z,7.10
2022-12-14T10:56:22.592Z,6.00
2022-12-14T10:59:25.424Z,4.55
2022-12-14T11:01:58.679Z,5.63
2022-12-14T11:04:34.555Z,9.27
2022-12-14T11:07:05.883Z,9.95
2022-12-14T11:09:35.396Z,6.15
2022-12-14T11:12:07.644Z,10.18
2022-12-14T11:14:41.384Z,7.30
2022-12-14T11:17:33.170Z,8.88
2022-12-14T11:20:18.237Z,13.10
2022-12-14T11:22:49.179Z,9.73
2022-12-14T11:25:37.125Z,5.90
2022-12-14T11:28:18.828Z,5.55
2022-12-14T11:31:03.100Z,2.35
2022-12-14T11:33:37.045Z,11.63
2022-12-14T11:36:07.182Z,3.88
2022-12-14T11:38:36.292Z,6.50
2022-12-14T11:41:11.108Z,8.32
2022-12-14T11:43:41.274Z,5.80
2022-12-14T11:46:11.821Z,5.80
2022-12-14T11:48:52.873Z,3.53
2022-12-14T11:51:21.881Z,9.38
2022-12-14T11:54:03.678Z,6.65
2022-12-14T11:56:32.669Z,5.15
2022-12-14T11:59:01.770Z,3.40
2022-12-14T12:01:33.698Z,3.70
2022-12-14T12:04:03.405Z,5.82
2022-12-14T12:06:33.167Z,4.97
2022-12-14T12:09:05.075Z,4.28
2022-12-14T12:11:36.146Z,7.03
2022-12-14T12:14:12.232Z,4.63
2022-12-14T12:16:44.733Z,4.57
2022-12-14T12:19:16.732Z,5.47
2022-12-14T12:21:46.195Z,5.63
2022-12-14T12:24:20.128Z,10.27
2022-12-14T12:26:52.293Z,6.18
2022-12-14T12:29:26.449Z,4.20
2022-12-14T12:31:59.887Z,5.80
2022-12-14T12:34:33.761Z,6.20
2022-12-14T12:37:26.615Z,5.25
2022-12-14T12:40:01.834Z,8.32
2022-12-14T12:42:40.929Z,2.97
2022-12-14T12:45:17.941Z,9.52
2022-12-14T12:47:52.363Z,4.97
2022-12-14T12:50:25.827Z,9.98
2022-12-14T12:53:03.661Z,8.07
2022-12-14T12:55:38.325Z,5.63
2022-12-14T12:58:10.428Z,6.15
2022-12-14T13:00:41.439Z,8.20
2022-12-14T13:03:19.530Z,6.43
2022-12-14T13:05:49.635Z,8.57
2022-12-14T13:08:28.139Z,12.68
2022-12-14T13:11:25.550Z,9.50
2022-12-14T13:13:53.864Z,10.93
2022-12-14T13:16:29.342Z,4.97
2022-12-14T13:19:32.556Z,8.65
2022-12-14T13:22:04.981Z,4.55
2022-12-14T13:24:35.652Z,5.72
2022-12-14T13:27:40.720Z,7.00
2022-12-14T13:31:00.757Z,9.20
2022-12-14T13:33:58.330Z,5.25
2022-12-14T13:37:00.377Z,5.53
2022-12-14T13:40:00.988Z,6.60
2022-12-14T13:42:43.503Z,7.50
2022-12-14T13:45:19.493Z,6.18
2022-12-14T13:47:53.970Z,7.05
2022-12-14T13:50:41.877Z,5.35
2022-12-14T13:53:19.639Z,5.57
2022-12-14T13:55:52.953Z,9.88
2022-12-14T13:58:29.769Z,6.18
2022-12-14T14:01:01.622Z,5.05
2022-12-14T14:03:51.218Z,8.13
2022-12-14T14:06:36.196Z,7.03
2022-12-14T14:09:42.792Z,6.82
2022-12-14T14:12:35.880Z,8.00
2022-12-14T14:15:31.521Z,7.18
2022-12-14T14:18:15.484Z,7.32
2022-12-14T14:20:46.642Z,5.70
2022-12-14T14:26:28.343Z,10.02
2022-12-14T14:29:33.362Z,7.15
2022-12-14T14:32:03.715Z,7.32
2022-12-14T14:34:51.107Z,3.50
2022-12-14T14:37:31.113Z,7.63
2022-12-14T14:40:18.682Z,3.78
2022-12-14T14:42:54.577Z,8.02
2022-12-14T14:45:35.383Z,6.40
2022-12-14T14:48:11.268Z,6.07
2022-12-14T14:50:43.617Z,10.40
2022-12-14T14:53:27.075Z,4.88
2022-12-14T14:56:07.995Z,5.13
2022-12-14T14:58:40.981Z,6.05
2022-12-14T15:01:25.382Z,7.28
2022-12-14T15:04:02.442Z,9.90
2022-12-14T15:06:33.968Z,4.57
2022-12-14T15:09:16.456Z,7.78
2022-12-14T15:11:48.716Z,8.10
2022-12-14T15:14:35.637Z,7.38
2022-12-14T15:17:21.156Z,7.38
2022-12-14T15:19:51.551Z,8.70
2022-12-14T15:22:23.265Z,7.70
2022-12-14T15:24:55.137Z,5.32
2022-12-14T15:27:30.343Z,4.88
2022-12-14T15:30:05.712Z,6.00
2022-12-14T15:32:36.344Z,10.73
2022-12-14T15:35:08.959Z,9.00
2022-12-14T15:37:44.877Z,3.67
2022-12-14T15:40:16.844Z,11.27
2022-12-14T15:42:50.229Z,14.23
2022-12-14T15:45:21.468Z,5.88
2022-12-14T15:47:51.874Z,8.43
2022-12-14T15:50:25.987Z,18.95
2022-12-14T15:52:57.497Z,17.73
2022-12-14T15:55:35.379Z,9.55
2022-12-14T15:58:10.068Z,12.65
2022-12-14T16:00:43.729Z,28.35
2022-12-14T16:03:28.406Z,14.13
2022-12-14T16:05:59.345Z,38.72
2022-12-14T16:08:29.831Z,8.77
2022-12-14T16:11:02.291Z,16.23
2022-12-14T16:13:35.531Z,17.60
2022-12-14T16:16:09.206Z,17.85
2022-12-14T16:18:43.535Z,20.33
2022-12-14T16:21:31.226Z,14.80
2022-12-14T16:24:02.073Z,21.67
2022-12-14T16:26:36.499Z,22.38
2022-12-14T16:29:10.638Z,18.83
2022-12-14T16:31:39.972Z,18.90
2022-12-14T16:34:16.852Z,17.08
2022-12-14T16:37:08.009Z,21.25
2022-12-14T16:39:40.811Z,17.50
2022-12-14T16:42:20.196Z,21.23
2022-12-14T16:44:49.760Z,16.65
2022-12-14T16:47:58.134Z,20.83
2022-12-14T16:53:24.425Z,16.55
2022-12-14T16:56:05.604Z,16.95
2022-12-14T16:58:35.535Z,14.32
2022-12-14T17:01:07.464Z,12.80
2022-12-14T17:03:38.613Z,12.13
2022-12-14T17:06:09.595Z,51.50
2022-12-14T17:08:38.617Z,17.70
2022-12-14T17:11:07.655Z,32.28
2022-12-14T17:13:36.683Z,19.33
2022-12-14T17:16:08.454Z,18.02
2022-12-14T17:18:41.619Z,15.88
2022-12-14T17:21:19.206Z,20.88
2022-12-14T17:23:48.221Z,19.92
2022-12-14T17:26:23.628Z,20.02
2022-12-14T17:28:52.811Z,27.20
2022-12-14T17:31:24.268Z,18.63
2022-12-14T17:33:55.153Z,23.13
2022-12-14T17:36:26.381Z,16.13
2022-12-14T17:41:26.945Z,22.25
2022-12-14T17:43:57.314Z,25.63
2022-12-14T17:46:26.854Z,27.13
2022-12-14T17:49:01.504Z,26.27
2022-12-14T17:51:41.227Z,21.88
2022-12-14T17:54:16.091Z,20.67
2022-12-14T17:56:45.992Z,19.35
2022-12-14T17:59:15.145Z,13.98
2022-12-14T18:01:44.265Z,20.02
2022-12-14T18:04:13.382Z,22.48
2022-12-14T18:06:44.582Z,13.68
2022-12-14T18:09:13.583Z,16.58
2022-12-14T18:12:06.640Z,16.55
2022-12-14T18:14:31.538Z,21.40
2022-12-14T18:17:01.067Z,32.78
2022-12-14T18:19:31.206Z,30.13
2022-12-14T18:22:01.585Z,21.55
2022-12-14T18:24:30.584Z,24.27
2022-12-14T18:26:59.670Z,18.20
2022-12-14T18:29:28.692Z,19.52
2022-12-14T18:31:57.780Z,19.88
2022-12-14T18:34:26.811Z,19.33
2022-12-14T18:36:55.938Z,23.67
2022-12-14T18:39:26.302Z,22.90
2022-12-14T18:41:55.634Z,17.85
2022-12-14T18:44:24.658Z,17.80
2022-12-14T18:46:53.693Z,18.48
2022-12-14T18:49:22.775Z,16.88
2022-12-14T18:51:51.771Z,17.20
2022-12-14T18:54:20.776Z,18.92
2022-12-14T18:56:51.168Z,20.95
2022-12-14T18:59:20.231Z,15.25
2022-12-14T19:01:49.366Z,21.33
2022-12-14T19:04:18.456Z,20.08
2022-12-14T19:06:47.523Z,17.02
2022-12-14T19:09:26.588Z,24.83
2022-12-14T19:12:06.453Z,18.80
2022-12-14T19:20:28.547Z,21.15
2022-12-14T19:22:57.851Z,23.00
2022-12-14T19:25:26.999Z,20.13
2022-12-14T19:30:49.036Z,26.95
2022-12-14T19:33:18.042Z,29.42
2022-12-14T19:38:36.134Z,28.92
2022-12-14T19:41:07.242Z,29.98
2022-12-14T19:46:12.353Z,53.72
2022-12-14T19:48:44.673Z,41.03
2022-12-14T19:51:20.821Z,30.63
2022-12-14T19:53:56.078Z,42.70
2022-12-14T19:56:28.084Z,26.80
2022-12-14T19:59:04.074Z,25.58
2022-12-14T20:01:39.637Z,25.30
2022-12-14T20:04:11.295Z,25.60
2022-12-14T20:06:40.408Z,20.67
2022-12-14T20:09:10.105Z,22.95
2022-12-14T20:11:39.223Z,25.70
2022-12-14T20:14:11.162Z,15.43
2022-12-14T20:16:40.470Z,19.23
2022-12-14T20:19:09.942Z,14.90
2022-12-14T20:21:39.856Z,20.35
2022-12-14T20:24:10.406Z,17.10
2022-12-14T20:26:40.470Z,23.17
2022-12-14T20:29:12.149Z,18.58
2022-12-14T20:31:41.687Z,17.73
2022-12-14T20:34:11.190Z,16.65
2022-12-14T20:36:40.522Z,22.13
2022-12-14T20:39:09.992Z,22.77
2022-12-14T20:41:39.939Z,20.70
2022-12-14T20:44:11.995Z,20.90
2022-12-14T20:46:47.299Z,19.42
2022-12-14T20:49:20.153Z,18.00
2022-12-14T20:51:49.700Z,24.52
2022-12-14T20:54:22.308Z,22.33
2022-12-14T20:56:51.542Z,26.95
2022-12-14T20:59:36.873Z,25.02
2022-12-14T21:02:07.153Z,21.48
2022-12-14T21:04:37.468Z,33.28
2022-12-14T21:07:12.815Z,44.25
2022-12-14T21:09:48.032Z,22.05
2022-12-14T21:12:28.339Z,21.15
2022-12-14T21:17:44.797Z,23.92
2022-12-14T21:20:14.132Z,19.35
2022-12-14T21:22:43.262Z,18.08
2022-12-14T21:25:12.305Z,22.80
2022-12-14T21:27:41.566Z,21.90
2022-12-14T21:30:13.488Z,18.88
2022-12-14T21:32:42.685Z,23.13
2022-12-14T21:35:13.272Z,23.85
2022-12-14T21:37:42.381Z,22.33
2022-12-14T21:40:31.968Z,24.17
2022-12-14T21:43:00.086Z,29.38
2022-12-14T21:45:31.681Z,22.58
2022-12-14T21:48:00.755Z,23.70
2022-12-14T21:50:29.819Z,24.38
2022-12-14T21:52:59.440Z,21.52
2022-12-14T21:55:28.645Z,26.52
2022-12-14T21:58:15.247Z,34.22
2022-12-14T22:00:46.145Z,34.28
2022-12-14T22:03:15.481Z,32.40
2022-12-14T22:05:44.635Z,33.05
2022-12-14T22:08:13.687Z,31.48
2022-12-14T22:10:42.833Z,27.40
2022-12-14T22:13:11.795Z,25.67
2022-12-14T22:15:40.856Z,27.00
2022-12-14T22:18:11.355Z,30.25
2022-12-14T22:20:40.325Z,27.00
2022-12-14T22:23:09.949Z,28.15
2022-12-14T22:25:38.929Z,20.88
2022-12-14T22:28:07.985Z,19.98
2022-12-14T22:30:39.928Z,19.55
2022-12-14T22:33:10.353Z,20.52
2022-12-14T22:35:39.356Z,17.67
2022-12-14T22:38:08.527Z,24.17
2022-12-14T22:40:37.628Z,26.92
2022-12-14T22:43:06.587Z,20.83
2022-12-14T22:45:36.365Z,38.28
2022-12-14T22:48:05.512Z,21.02
2022-12-14T22:50:36.233Z,29.23
2022-12-14T22:53:05.206Z,40.67
2022-12-14T22:55:49.905Z,27.27
2022-12-14T22:58:20.207Z,19.42
2022-12-14T23:00:50.305Z,23.17
2022-12-14T23:03:20.485Z,16.33
2022-12-14T23:05:51.115Z,23.07
2022-12-14T23:08:20.302Z,16.58
2022-12-14T23:11:06.490Z,19.38
2022-12-14T23:13:52.962Z,15.48
2022-12-14T23:16:39.415Z,17.00
2022-12-14T23:19:25.970Z,12.07
2022-12-14T23:22:14.143Z,15.30
2022-12-14T23:25:00.340Z,11.38
2022-12-14T23:27:46.891Z,15.80
2022-12-14T23:30:33.192Z,15.63
2022-12-14T23:33:19.419Z,14.43
2022-12-14T23:36:05.846Z,13.90
2022-12-14T23:38:53.820Z,12.05
2022-12-14T23:41:39.990Z,13.52
2022-12-14T23:44:26.183Z,17.27
2022-12-14T23:47:12.359Z,16.48
2022-12-14T23:49:58.762Z,17.48
2022-12-14T23:52:45.164Z,11.57
2022-12-14T23:55:33.230Z,17.10
2022-12-14T23:58:19.608Z,9.82
